createdAt,value
2018-11-27T00:00:21.902Z,999.77
2018-11-27T00:01:21.924Z,999.75
2018-11-27T00:02:21.937Z,999.73
2018-11-27T00:03:21.955Z,999.78
2018-11-27T00:04:21.971Z,999.76
2018-11-27T00:05:22.000Z,999.76
2018-11-27T00:06:22.007Z,999.83
2018-11-27T00:07:22.029Z,999.82
2018-11-27T00:08:22.042Z,999.87
2018-11-27T00:09:22.061Z,999.88
2018-11-27T00:10:22.078Z,999.92
2018-11-27T00:11:22.099Z,999.89
2018-11-27T00:12:22.117Z,999.93
2018-11-27T00:13:22.131Z,999.9
2018-11-27T00:14:22.149Z,999.9
2018-11-27T00:15:22.165Z,999.87
2018-11-27T00:16:22.182Z,999.85
2018-11-27T00:17:22.206Z,999.86
2018-11-27T00:18:22.218Z,999.86
2018-11-27T00:19:22.238Z,999.87
2018-11-27T00:20:22.254Z,999.85
2018-11-27T00:21:22.272Z,999.86
2018-11-27T00:22:22.290Z,999.88
2018-11-27T00:23:22.312Z,999.88
2018-11-27T00:24:22.325Z,999.9
2018-11-27T00:25:22.343Z,999.87
2018-11-27T00:26:22.359Z,999.92
2018-11-27T00:27:22.377Z,999.96
2018-11-27T00:28:22.396Z,999.93
2018-11-27T00:29:22.418Z,999.94
2018-11-27T00:30:22.430Z,999.94
2018-11-27T00:31:22.453Z,999.91
2018-11-27T00:32:22.467Z,999.93
2018-11-27T00:33:22.484Z,999.93
2018-11-27T00:34:22.544Z,999.92
2018-11-27T00:35:22.520Z,999.9
2018-11-27T00:36:22.537Z,999.9
2018-11-27T00:37:22.555Z,999.91
2018-11-27T00:38:22.572Z,999.97
2018-11-27T00:39:22.590Z,999.95
2018-11-27T00:40:22.609Z,999.96
2018-11-27T00:41:22.626Z,999.99
2018-11-27T00:42:22.646Z,999.97
2018-11-27T00:43:22.665Z,999.99
2018-11-27T00:44:22.679Z,999.97
2018-11-27T00:45:22.700Z,999.99
2018-11-27T00:46:22.717Z,1000
2018-11-27T00:47:22.731Z,1000.02
2018-11-27T00:48:22.748Z,1000.05
2018-11-27T00:49:22.767Z,1000.05
2018-11-27T00:50:22.787Z,1000.01
2018-11-27T00:51:22.800Z,1000.02
2018-11-27T00:52:22.820Z,1000.03
2018-11-27T00:53:22.836Z,1000.04
2018-11-27T00:54:22.855Z,1000.02
2018-11-27T00:55:22.874Z,1000.04
2018-11-27T00:56:22.893Z,1000.05
2018-11-27T00:57:22.911Z,1000.1
2018-11-27T00:58:22.928Z,1000.11
2018-11-27T00:59:22.943Z,1000.06
2018-11-27T01:00:22.963Z,1000.04
2018-11-27T01:01:22.980Z,1000.05
2018-11-27T01:02:22.996Z,1000.03
2018-11-27T01:03:23.017Z,1000.1
2018-11-27T01:04:23.031Z,1000.11
2018-11-27T01:05:23.049Z,1000.11
2018-11-27T01:06:23.066Z,1000.13
2018-11-27T01:07:23.087Z,1000.11
2018-11-27T01:08:23.106Z,1000.16
2018-11-27T01:09:23.120Z,1000.13
2018-11-27T01:10:23.138Z,1000.13
2018-11-27T01:11:23.160Z,1000.15
2018-11-27T01:12:23.174Z,1000.1
2018-11-27T01:13:23.194Z,1000.1
2018-11-27T01:14:23.209Z,1000.13
2018-11-27T01:15:23.230Z,1000.14
2018-11-27T01:16:23.245Z,1000.12
2018-11-27T01:17:23.261Z,1000.14
2018-11-27T01:18:23.278Z,1000.17
2018-11-27T01:19:23.297Z,1000.15
2018-11-27T01:20:23.318Z,1000.17
2018-11-27T01:21:23.336Z,1000.12
2018-11-27T01:22:23.358Z,1000.2
2018-11-27T01:23:23.369Z,1000.16
2018-11-27T01:24:23.384Z,1000.17
2018-11-27T01:25:23.405Z,1000.17
2018-11-27T01:26:23.425Z,1000.2
2018-11-27T01:27:23.437Z,1000.21
2018-11-27T01:28:23.461Z,1000.23
2018-11-27T01:29:23.472Z,1000.16
2018-11-27T01:30:23.492Z,1000.15
2018-11-27T01:31:23.510Z,1000.2
2018-11-27T01:32:23.527Z,1000.2
2018-11-27T01:33:23.547Z,1000.17
2018-11-27T01:34:23.561Z,1000.25
2018-11-27T01:35:23.579Z,1000.21
2018-11-27T01:36:23.598Z,1000.2
2018-11-27T01:37:23.616Z,1000.27
2018-11-27T01:38:23.636Z,1000.24
2018-11-27T01:39:23.650Z,1000.27
2018-11-27T01:40:23.668Z,1000.29
2018-11-27T01:41:23.688Z,1000.29
2018-11-27T01:42:23.703Z,1000.26
2018-11-27T01:43:23.720Z,1000.26
2018-11-27T01:44:23.740Z,1000.25
2018-11-27T01:45:23.760Z,1000.28
2018-11-27T01:46:23.774Z,1000.29
2018-11-27T01:47:23.795Z,1000.31
2018-11-27T01:48:23.814Z,1000.31
2018-11-27T01:49:23.832Z,1000.32
2018-11-27T01:50:23.845Z,1000.32
2018-11-27T01:51:23.864Z,1000.35
2018-11-27T01:52:23.885Z,1000.36
2018-11-27T01:53:23.899Z,1000.35
2018-11-27T01:54:23.919Z,1000.33
2018-11-27T01:55:23.932Z,1000.35
2018-11-27T01:56:23.952Z,1000.34
2018-11-27T01:57:23.968Z,1000.34
2018-11-27T01:58:23.994Z,1000.34
2018-11-27T01:59:24.004Z,1000.37
2018-11-27T02:00:24.024Z,1000.34
2018-11-27T02:01:24.039Z,1000.38
2018-11-27T02:02:24.058Z,1000.37
2018-11-27T02:03:24.077Z,1000.37
2018-11-27T02:04:24.113Z,1000.35
2018-11-27T02:05:24.111Z,1000.36
2018-11-27T02:06:24.132Z,1000.38
2018-11-27T02:07:24.148Z,1000.37
2018-11-27T02:08:24.165Z,1000.4
2018-11-27T02:09:24.183Z,1000.36
2018-11-27T02:10:24.200Z,1000.39
2018-11-27T02:11:24.222Z,1000.41
2018-11-27T02:12:24.236Z,1000.39
2018-11-27T02:13:24.253Z,1000.42
2018-11-27T02:14:24.270Z,1000.38
2018-11-27T02:15:24.289Z,1000.38
2018-11-27T02:16:24.305Z,1000.39
2018-11-27T02:17:24.323Z,1000.37
2018-11-27T02:18:24.342Z,1000.38
2018-11-27T02:19:24.358Z,1000.35
2018-11-27T02:20:24.377Z,1000.35
2018-11-27T02:21:24.395Z,1000.31
2018-11-27T02:22:24.413Z,1000.3
2018-11-27T02:23:24.430Z,1000.27
2018-11-27T02:24:24.447Z,1000.29
2018-11-27T02:25:24.465Z,1000.28
2018-11-27T02:26:24.482Z,1000.29
2018-11-27T02:27:24.501Z,1000.29
2018-11-27T02:28:24.566Z,1000.27
2018-11-27T02:29:24.538Z,1000.31
2018-11-27T02:30:24.554Z,1000.3
2018-11-27T02:31:24.575Z,1000.28
2018-11-27T02:32:24.592Z,1000.32
2018-11-27T02:33:24.608Z,1000.34
2018-11-27T02:34:24.626Z,1000.29
2018-11-27T02:35:24.644Z,1000.3
2018-11-27T02:36:24.662Z,1000.29
2018-11-27T02:37:24.679Z,1000.3
2018-11-27T02:38:24.696Z,1000.33
2018-11-27T02:39:24.715Z,1000.3
2018-11-27T02:40:24.779Z,1000.3
2018-11-27T02:41:24.750Z,1000.33
2018-11-27T02:42:24.768Z,1000.31
2018-11-27T02:43:24.786Z,1000.32
2018-11-27T02:44:24.801Z,1000.38
2018-11-27T02:45:24.820Z,1000.34
2018-11-27T02:46:24.839Z,1000.34
2018-11-27T02:47:24.856Z,1000.33
2018-11-27T02:48:24.875Z,1000.41
2018-11-27T02:49:24.890Z,1000.37
2018-11-27T02:50:24.912Z,1000.35
2018-11-27T02:51:24.927Z,1000.34
2018-11-27T02:52:24.943Z,1000.34
2018-11-27T02:53:24.963Z,1000.35
2018-11-27T02:54:24.979Z,1000.33
2018-11-27T02:55:25.002Z,1000.33
2018-11-27T02:56:25.014Z,1000.31
2018-11-27T02:57:25.033Z,1000.34
2018-11-27T02:58:25.051Z,1000.35
2018-11-27T02:59:25.067Z,1000.3
2018-11-27T03:00:25.092Z,1000.36
2018-11-27T03:01:25.104Z,1000.37
2018-11-27T03:02:25.123Z,1000.36
2018-11-27T03:03:25.138Z,1000.38
2018-11-27T03:04:25.156Z,1000.35
2018-11-27T03:05:25.175Z,1000.38
2018-11-27T03:06:25.192Z,1000.38
2018-11-27T03:07:25.210Z,1000.39
2018-11-27T03:08:25.227Z,1000.38
2018-11-27T03:09:25.245Z,1000.39
2018-11-27T03:10:25.262Z,1000.36
2018-11-27T03:11:25.280Z,1000.43
2018-11-27T03:12:25.298Z,1000.42
2018-11-27T03:13:25.316Z,1000.43
2018-11-27T03:14:25.333Z,1000.39
2018-11-27T03:15:25.353Z,1000.45
2018-11-27T03:16:25.368Z,1000.44
2018-11-27T03:17:25.384Z,1000.42
2018-11-27T03:18:25.405Z,1000.4
2018-11-27T03:19:25.420Z,1000.41
2018-11-27T03:20:25.438Z,1000.4
2018-11-27T03:21:25.455Z,1000.45
2018-11-27T03:22:25.473Z,1000.46
2018-11-27T03:23:25.492Z,1000.46
2018-11-27T03:24:25.510Z,1000.47
2018-11-27T03:25:25.528Z,1000.47
2018-11-27T03:26:25.547Z,1000.49
2018-11-27T03:27:25.567Z,1000.5
2018-11-27T03:28:25.580Z,1000.54
2018-11-27T03:29:25.597Z,1000.52
2018-11-27T03:30:25.647Z,1000.54
2018-11-27T03:31:25.638Z,1000.54
2018-11-27T03:32:25.651Z,1000.58
2018-11-27T03:33:25.670Z,1000.59
2018-11-27T03:34:25.688Z,1000.6
2018-11-27T03:35:25.704Z,1000.64
2018-11-27T03:36:25.721Z,1000.62
2018-11-27T03:37:25.738Z,1000.6
2018-11-27T03:38:25.756Z,1000.64
2018-11-27T03:39:25.773Z,1000.63
2018-11-27T03:40:25.790Z,1000.6
2018-11-27T03:41:25.809Z,1000.61
2018-11-27T03:42:25.829Z,1000.62
2018-11-27T03:43:25.848Z,1000.6
2018-11-27T03:44:25.863Z,1000.61
2018-11-27T03:45:25.885Z,1000.63
2018-11-27T03:46:25.903Z,1000.64
2018-11-27T03:47:25.913Z,1000.57
2018-11-27T03:48:25.931Z,1000.6
2018-11-27T03:49:25.954Z,1000.61
2018-11-27T03:50:25.967Z,1000.61
2018-11-27T03:51:25.991Z,1000.58
2018-11-27T03:52:26.007Z,1000.58
2018-11-27T03:53:26.026Z,1000.63
2018-11-27T03:54:26.037Z,1000.6
2018-11-27T03:55:26.055Z,1000.64
2018-11-27T03:56:26.074Z,1000.64
2018-11-27T03:57:26.096Z,1000.67
2018-11-27T03:58:26.108Z,1000.7
2018-11-27T03:59:26.130Z,1000.68
2018-11-27T04:00:26.145Z,1000.72
2018-11-27T04:01:26.162Z,1000.73
2018-11-27T04:02:26.178Z,1000.79
2018-11-27T04:03:26.199Z,1000.79
2018-11-27T04:04:26.218Z,1000.81
2018-11-27T04:05:26.232Z,1000.8
2018-11-27T04:06:26.249Z,1000.79
2018-11-27T04:07:26.267Z,1000.82
2018-11-27T04:08:26.287Z,1000.8
2018-11-27T04:09:26.303Z,1000.86
2018-11-27T04:10:26.321Z,1000.83
2018-11-27T04:11:26.341Z,1000.84
2018-11-27T04:12:26.355Z,1000.81
2018-11-27T04:13:26.378Z,1000.86
2018-11-27T04:14:26.391Z,1000.84
2018-11-27T04:15:26.414Z,1000.82
2018-11-27T04:16:26.429Z,1000.85
2018-11-27T04:17:26.448Z,1000.81
2018-11-27T04:18:26.460Z,1000.73
2018-11-27T04:19:26.479Z,1000.79
2018-11-27T04:20:26.500Z,1000.76
2018-11-27T04:21:26.517Z,1000.77
2018-11-27T04:22:26.532Z,1000.78
2018-11-27T04:23:26.548Z,1000.76
2018-11-27T04:24:26.565Z,1000.74
2018-11-27T04:25:26.583Z,1000.71
2018-11-27T04:26:26.606Z,1000.72
2018-11-27T04:27:26.621Z,1000.73
2018-11-27T04:28:26.636Z,1000.75
2018-11-27T04:29:26.654Z,1000.72
2018-11-27T04:30:26.671Z,1000.77
2018-11-27T04:31:26.689Z,1000.74
2018-11-27T04:32:26.705Z,1000.75
2018-11-27T04:33:26.729Z,1000.79
2018-11-27T04:34:26.742Z,1000.81
2018-11-27T04:35:26.758Z,1000.81
2018-11-27T04:36:26.782Z,1000.84
2018-11-27T04:37:26.797Z,1000.88
2018-11-27T04:38:26.811Z,1000.91
2018-11-27T04:39:26.828Z,1000.88
2018-11-27T04:40:26.846Z,1000.89
2018-11-27T04:41:26.865Z,1000.92
2018-11-27T04:42:26.882Z,1000.9
2018-11-27T04:43:26.898Z,1000.94
2018-11-27T04:44:26.915Z,1000.91
2018-11-27T04:45:26.933Z,1000.9
2018-11-27T04:46:26.954Z,1000.88
2018-11-27T04:47:26.974Z,1000.86
2018-11-27T04:48:26.989Z,1000.87
2018-11-27T04:49:27.004Z,1000.83
2018-11-27T04:50:27.021Z,1000.88
2018-11-27T04:51:27.038Z,1000.87
2018-11-27T04:52:27.064Z,1000.87
2018-11-27T04:53:27.076Z,1000.83
2018-11-27T04:54:27.090Z,1000.87
2018-11-27T04:55:27.108Z,1000.88
2018-11-27T04:56:27.124Z,1000.85
2018-11-27T04:57:27.143Z,1000.86
2018-11-27T04:58:27.163Z,1000.87
2018-11-27T04:59:27.182Z,1000.92
2018-11-27T05:00:27.200Z,1000.9
2018-11-27T05:01:27.211Z,1000.91
2018-11-27T05:02:27.234Z,1000.95
2018-11-27T05:03:27.246Z,1000.92
2018-11-27T05:04:27.264Z,1000.95
2018-11-27T05:05:27.281Z,1000.94
2018-11-27T05:06:27.304Z,1000.92
2018-11-27T05:07:27.316Z,1000.98
2018-11-27T05:08:27.335Z,1000.95
2018-11-27T05:09:27.352Z,1000.95
2018-11-27T05:10:27.368Z,1001.01
2018-11-27T05:11:27.390Z,1001.03
2018-11-27T05:12:27.406Z,1001.03
2018-11-27T05:13:27.426Z,1001.04
2018-11-27T05:14:27.439Z,1001.09
2018-11-27T05:15:27.461Z,1001.06
2018-11-27T05:16:27.473Z,1001.07
2018-11-27T05:17:27.493Z,1001.11
2018-11-27T05:18:27.515Z,1001.1
2018-11-27T05:19:27.526Z,1001.09
2018-11-27T05:20:27.544Z,1001.1
2018-11-27T05:21:27.561Z,1001.14
2018-11-27T05:22:27.580Z,1001.14
2018-11-27T05:23:27.599Z,1001.13
2018-11-27T05:24:27.614Z,1001.12
2018-11-27T05:25:27.636Z,1001.15
2018-11-27T05:26:27.650Z,1001.14
2018-11-27T05:27:27.666Z,1001.19
2018-11-27T05:28:27.688Z,1001.16
2018-11-27T05:29:27.700Z,1001.21
2018-11-27T05:30:28.325Z,1001.23
2018-11-27T05:31:27.736Z,1001.21
2018-11-27T05:32:27.755Z,1001.25
2018-11-27T05:33:27.771Z,1001.26
2018-11-27T05:34:27.792Z,1001.31
2018-11-27T05:35:27.817Z,1001.3
2018-11-27T05:36:27.822Z,1001.3
2018-11-27T05:37:27.842Z,1001.31
2018-11-27T05:38:27.859Z,1001.3
2018-11-27T05:39:27.878Z,1001.3
2018-11-27T05:40:27.897Z,1001.28
2018-11-27T05:41:27.911Z,1001.29
2018-11-27T05:42:27.929Z,1001.28
2018-11-27T05:43:27.946Z,1001.32
2018-11-27T05:44:27.964Z,1001.3
2018-11-27T05:45:27.985Z,1001.33
2018-11-27T05:46:27.999Z,1001.32
2018-11-27T05:47:28.016Z,1001.31
2018-11-27T05:48:28.038Z,1001.31
2018-11-27T05:49:28.050Z,1001.3
2018-11-27T05:50:28.069Z,1001.33
2018-11-27T05:51:28.086Z,1001.33
2018-11-27T05:52:28.107Z,1001.39
2018-11-27T05:53:28.121Z,1001.33
2018-11-27T05:54:28.138Z,1001.36
2018-11-27T05:55:28.155Z,1001.35
2018-11-27T05:56:28.174Z,1001.42
2018-11-27T05:57:28.190Z,1001.4
2018-11-27T05:58:28.206Z,1001.42
2018-11-27T05:59:28.224Z,1001.42
2018-11-27T06:00:28.242Z,1001.44
2018-11-27T06:01:28.265Z,1001.42
2018-11-27T06:02:28.276Z,1001.45
2018-11-27T06:03:28.297Z,1001.42
2018-11-27T06:04:28.311Z,1001.41
2018-11-27T06:05:28.332Z,1001.43
2018-11-27T06:06:28.349Z,1001.48
2018-11-27T06:07:28.362Z,1001.47
2018-11-27T06:08:28.386Z,1001.49
2018-11-27T06:09:28.397Z,1001.53
2018-11-27T06:10:28.419Z,1001.51
2018-11-27T06:11:28.433Z,1001.57
2018-11-27T06:12:28.455Z,1001.6
2018-11-27T06:13:28.467Z,1001.63
2018-11-27T06:14:28.484Z,1001.59
2018-11-27T06:15:28.507Z,1001.58
2018-11-27T06:16:28.520Z,1001.64
2018-11-27T06:17:28.539Z,1001.66
2018-11-27T06:18:28.558Z,1001.65
2018-11-27T06:19:28.573Z,1001.63
2018-11-27T06:20:28.593Z,1001.63
2018-11-27T06:21:28.606Z,1001.65
2018-11-27T06:22:28.628Z,1001.64
2018-11-27T06:23:28.641Z,1001.67
2018-11-27T06:24:28.663Z,1001.64
2018-11-27T06:25:28.708Z,1001.64
2018-11-27T06:26:28.693Z,1001.62
2018-11-27T06:27:28.709Z,1001.63
2018-11-27T06:28:28.728Z,1001.65
2018-11-27T06:29:28.745Z,1001.67
2018-11-27T06:30:28.761Z,1001.68
2018-11-27T06:31:28.780Z,1001.7
2018-11-27T06:32:28.797Z,1001.75
2018-11-27T06:33:28.819Z,1001.74
2018-11-27T06:34:28.832Z,1001.8
2018-11-27T06:35:28.848Z,1001.83
2018-11-27T06:36:28.865Z,1001.86
2018-11-27T06:37:28.885Z,1001.89
2018-11-27T06:38:28.900Z,1001.84
2018-11-27T06:39:28.924Z,1001.91
2018-11-27T06:40:28.941Z,1001.93
2018-11-27T06:41:28.957Z,1001.91
2018-11-27T06:42:28.971Z,1001.94
2018-11-27T06:43:28.987Z,1001.96
2018-11-27T06:44:29.009Z,1001.99
2018-11-27T06:45:29.025Z,1001.97
2018-11-27T06:46:29.044Z,1001.91
2018-11-27T06:47:29.061Z,1001.99
2018-11-27T06:48:29.080Z,1002
2018-11-27T06:49:29.092Z,1001.9
2018-11-27T06:50:29.113Z,1001.95
2018-11-27T06:51:29.127Z,1001.99
2018-11-27T06:52:29.145Z,1001.98
2018-11-27T06:53:29.162Z,1001.98
2018-11-27T06:54:29.183Z,1001.96
2018-11-27T06:55:29.197Z,1001.96
2018-11-27T06:56:29.215Z,1002.02
2018-11-27T06:57:29.230Z,1002.06
2018-11-27T06:58:29.252Z,1002.04
2018-11-27T06:59:29.273Z,1002.05
2018-11-27T07:00:29.286Z,1002.07
2018-11-27T07:01:29.300Z,1002.13
2018-11-27T07:02:29.322Z,1002.18
2018-11-27T07:03:29.338Z,1002.17
2018-11-27T07:04:29.357Z,1002.21
2018-11-27T07:05:29.375Z,1002.22
2018-11-27T07:06:29.387Z,1002.21
2018-11-27T07:07:29.409Z,1002.25
2018-11-27T07:08:29.422Z,1002.24
2018-11-27T07:09:29.479Z,1002.28
2018-11-27T07:10:29.458Z,1002.25
2018-11-27T07:11:29.474Z,1002.28
2018-11-27T07:12:29.535Z,1002.27
2018-11-27T07:13:29.510Z,1002.27
2018-11-27T07:14:29.534Z,1002.3
2018-11-27T07:15:29.543Z,1002.34
2018-11-27T07:16:29.562Z,1002.34
2018-11-27T07:17:29.578Z,1002.32
2018-11-27T07:18:29.599Z,1002.38
2018-11-27T07:19:29.612Z,1002.39
2018-11-27T07:20:29.631Z,1002.36
2018-11-27T07:21:29.649Z,1002.37
2018-11-27T07:22:29.664Z,1002.4
2018-11-27T07:23:29.687Z,1002.41
2018-11-27T07:24:29.705Z,1002.42
2018-11-27T07:25:29.718Z,1002.43
2018-11-27T07:26:29.738Z,1002.46
2018-11-27T07:27:29.754Z,1002.44
2018-11-27T07:28:29.821Z,1002.47
2018-11-27T07:29:29.790Z,1002.48
2018-11-27T07:30:29.808Z,1002.49
2018-11-27T07:31:29.821Z,1002.53
2018-11-27T07:32:29.843Z,1002.52
2018-11-27T07:33:29.859Z,1002.55
2018-11-27T07:34:29.877Z,1002.55
2018-11-27T07:35:29.929Z,1002.56
2018-11-27T07:36:29.908Z,1002.56
2018-11-27T07:37:29.928Z,1002.56
2018-11-27T07:38:29.946Z,1002.57
2018-11-27T07:39:29.964Z,1002.57
2018-11-27T07:40:29.977Z,1002.57
2018-11-27T07:41:29.992Z,1002.6
2018-11-27T07:42:30.015Z,1002.67
2018-11-27T07:43:30.032Z,1002.62
2018-11-27T07:44:30.050Z,1002.65
2018-11-27T07:45:30.067Z,1002.63
2018-11-27T07:46:30.086Z,1002.67
2018-11-27T07:47:30.099Z,1002.65
2018-11-27T07:48:30.122Z,1002.68
2018-11-27T07:49:30.134Z,1002.71
2018-11-27T07:50:30.154Z,1002.76
2018-11-27T07:51:30.166Z,1002.71
2018-11-27T07:52:30.185Z,1002.73
2018-11-27T07:53:30.202Z,1002.74
2018-11-27T07:54:30.220Z,1002.72
2018-11-27T07:55:30.237Z,1002.71
2018-11-27T07:56:30.255Z,1002.79
2018-11-27T07:57:30.272Z,1002.8
2018-11-27T07:58:30.290Z,1002.83
2018-11-27T07:59:30.308Z,1002.8
2018-11-27T08:00:30.323Z,1002.81
2018-11-27T08:01:30.343Z,1002.87
2018-11-27T08:02:30.357Z,1002.85
2018-11-27T08:03:30.374Z,1002.87
2018-11-27T08:04:30.392Z,1002.93
2018-11-27T08:05:30.409Z,1002.94
2018-11-27T08:06:30.427Z,1002.96
2018-11-27T08:07:30.448Z,1002.98
2018-11-27T08:08:30.464Z,1002.94
2018-11-27T08:09:30.483Z,1003.01
2018-11-27T08:10:30.495Z,1002.98
2018-11-27T08:11:30.514Z,1002.99
2018-11-27T08:12:30.534Z,1003.01
2018-11-27T08:13:30.548Z,1003
2018-11-27T08:14:30.566Z,1002.98
2018-11-27T08:15:30.586Z,1002.99
2018-11-27T08:16:30.602Z,1003
2018-11-27T08:17:30.621Z,1002.98
2018-11-27T08:18:30.634Z,1003.01
2018-11-27T08:19:30.653Z,1003.02
2018-11-27T08:20:30.674Z,1003.05
2018-11-27T08:21:30.691Z,1003.08
2018-11-27T08:22:30.703Z,1003.09
2018-11-27T08:23:30.722Z,1003.12
2018-11-27T08:24:30.741Z,1003.16
2018-11-27T08:25:30.756Z,1003.18
2018-11-27T08:26:30.773Z,1003.19
2018-11-27T08:27:30.793Z,1003.21
2018-11-27T08:28:30.811Z,1003.22
2018-11-27T08:29:30.829Z,1003.24
2018-11-27T08:30:30.843Z,1003.22
2018-11-27T08:31:30.864Z,1003.24
2018-11-27T08:32:30.880Z,1003.29
2018-11-27T08:33:30.894Z,1003.24
2018-11-27T08:34:30.916Z,1003.28
2018-11-27T08:35:30.933Z,1003.33
2018-11-27T08:36:30.951Z,1003.28
2018-11-27T08:37:30.964Z,1003.34
2018-11-27T08:38:30.985Z,1003.29
2018-11-27T08:39:31.001Z,1003.3
2018-11-27T08:40:31.016Z,1003.35
2018-11-27T08:41:40.172Z,1003.33
2018-11-27T08:42:31.052Z,1003.35
2018-11-27T08:43:31.071Z,1003.38
2018-11-27T08:44:31.085Z,1003.41
2018-11-27T08:45:31.102Z,1003.35
2018-11-27T08:46:31.119Z,1003.43
2018-11-27T08:47:31.137Z,1003.46
2018-11-27T08:48:31.155Z,1003.51
2018-11-27T08:49:31.176Z,1003.49
2018-11-27T08:50:31.193Z,1003.53
2018-11-27T08:51:31.206Z,1003.53
2018-11-27T08:52:31.223Z,1003.59
2018-11-27T08:53:31.246Z,1003.58
2018-11-27T08:54:31.266Z,1003.59
2018-11-27T08:55:31.279Z,1003.6
2018-11-27T08:56:31.295Z,1003.57
2018-11-27T08:57:31.310Z,1003.63
2018-11-27T08:58:31.335Z,1003.62
2018-11-27T08:59:31.351Z,1003.62
2018-11-27T09:00:31.364Z,1003.66
2018-11-27T09:01:31.380Z,1003.7
2018-11-27T09:02:31.398Z,1003.71
2018-11-27T09:03:31.419Z,1003.74
2018-11-27T09:04:31.432Z,1003.74
2018-11-27T09:05:31.449Z,1003.71
2018-11-27T09:06:31.478Z,1003.75
2018-11-27T09:07:31.487Z,1003.72
2018-11-27T09:08:31.502Z,1003.76
2018-11-27T09:09:31.523Z,1003.75
2018-11-27T09:10:31.541Z,1003.74
2018-11-27T09:11:31.554Z,1003.7
2018-11-27T09:12:31.570Z,1003.73
2018-11-27T09:13:31.596Z,1003.72
2018-11-27T09:14:31.606Z,1003.66
2018-11-27T09:15:31.622Z,1003.66
2018-11-27T09:16:31.640Z,1003.65
2018-11-27T09:17:31.662Z,1003.69
2018-11-27T09:18:31.676Z,1003.68
2018-11-27T09:19:31.698Z,1003.73
2018-11-27T09:20:31.716Z,1003.73
2018-11-27T09:21:31.728Z,1003.7
2018-11-27T09:22:31.750Z,1003.74
2018-11-27T09:23:31.766Z,1003.75
2018-11-27T09:24:31.781Z,1003.77
2018-11-27T09:25:31.801Z,1003.74
2018-11-27T09:26:31.815Z,1003.77
2018-11-27T09:27:31.833Z,1003.79
2018-11-27T09:28:31.850Z,1003.77
2018-11-27T09:29:31.869Z,1003.76
2018-11-27T09:30:31.888Z,1003.73
2018-11-27T09:31:31.907Z,1003.75
2018-11-27T09:32:31.919Z,1003.73
2018-11-27T09:33:31.938Z,1003.81
2018-11-27T09:34:31.954Z,1003.78
2018-11-27T09:35:31.977Z,1003.79
2018-11-27T09:36:31.993Z,1003.82
2018-11-27T09:37:32.010Z,1003.86
2018-11-27T09:38:32.025Z,1003.86
2018-11-27T09:39:32.042Z,1003.87
2018-11-27T09:40:32.059Z,1003.88
2018-11-27T09:41:32.080Z,1003.86
2018-11-27T09:42:32.094Z,1003.89
2018-11-27T09:43:32.111Z,1003.9
2018-11-27T09:44:32.130Z,1003.92
2018-11-27T09:45:32.147Z,1003.92
2018-11-27T09:46:32.162Z,1003.91
2018-11-27T09:47:32.184Z,1003.94
2018-11-27T09:48:32.201Z,1003.94
2018-11-27T09:49:32.219Z,1003.94
2018-11-27T09:50:32.234Z,1003.94
2018-11-27T09:51:32.256Z,1003.95
2018-11-27T09:52:32.269Z,1003.97
2018-11-27T09:53:32.288Z,1003.96
2018-11-27T09:54:32.305Z,1003.96
2018-11-27T09:55:32.322Z,1003.94
2018-11-27T09:56:32.344Z,1003.93
2018-11-27T09:57:32.357Z,1003.93
2018-11-27T09:58:32.379Z,1003.94
2018-11-27T09:59:32.396Z,1003.91
2018-11-27T10:00:32.413Z,1003.94
2018-11-27T10:01:32.427Z,1003.97
2018-11-27T10:02:32.445Z,1003.98
2018-11-27T10:03:32.463Z,1003.97
2018-11-27T10:04:32.480Z,1003.97
2018-11-27T10:05:32.496Z,1004
2018-11-27T10:06:32.517Z,1004
2018-11-27T10:07:32.532Z,1004
2018-11-27T10:08:32.551Z,1003.98
2018-11-27T10:09:32.574Z,1004.01
2018-11-27T10:10:32.589Z,1004
2018-11-27T10:11:32.604Z,1004.08
2018-11-27T10:12:32.621Z,1004.08
2018-11-27T10:13:32.639Z,1004.07
2018-11-27T10:14:32.656Z,1004.08
2018-11-27T10:15:32.677Z,1004.08
2018-11-27T10:16:32.693Z,1004.05
2018-11-27T10:17:32.714Z,1004.04
2018-11-27T10:18:32.728Z,1004.01
2018-11-27T10:19:32.750Z,1004.06
2018-11-27T10:20:32.765Z,1004.04
2018-11-27T10:21:32.780Z,1004.01
2018-11-27T10:22:32.802Z,1003.99
2018-11-27T10:23:32.814Z,1003.99
2018-11-27T10:24:32.833Z,1003.98
2018-11-27T10:25:32.854Z,1003.92
2018-11-27T10:26:32.868Z,1003.91
2018-11-27T10:27:32.885Z,1003.89
2018-11-27T10:28:32.908Z,1003.87
2018-11-27T10:29:32.923Z,1003.86
2018-11-27T10:30:32.944Z,1003.86
2018-11-27T10:31:32.957Z,1003.85
2018-11-27T10:32:32.979Z,1003.82
2018-11-27T10:33:32.992Z,1003.88
2018-11-27T10:34:33.016Z,1003.83
2018-11-27T10:35:33.029Z,1003.85
2018-11-27T10:36:33.048Z,1003.81
2018-11-27T10:37:33.067Z,1003.83
2018-11-27T10:38:33.081Z,1003.84
2018-11-27T10:39:33.099Z,1003.81
2018-11-27T10:40:33.115Z,1003.77
2018-11-27T10:41:33.132Z,1003.73
2018-11-27T10:42:33.153Z,1003.76
2018-11-27T10:43:33.172Z,1003.76
2018-11-27T10:44:33.188Z,1003.79
2018-11-27T10:45:33.209Z,1003.82
2018-11-27T10:46:33.224Z,1003.76
2018-11-27T10:47:33.244Z,1003.81
2018-11-27T10:48:33.258Z,1003.74
2018-11-27T10:49:33.276Z,1003.76
2018-11-27T10:50:33.292Z,1003.75
2018-11-27T10:51:33.314Z,1003.76
2018-11-27T10:52:33.329Z,1003.74
2018-11-27T10:53:33.346Z,1003.74
2018-11-27T10:54:33.363Z,1003.73
2018-11-27T10:55:33.381Z,1003.78
2018-11-27T10:56:33.399Z,1003.78
2018-11-27T10:57:33.417Z,1003.82
2018-11-27T10:58:33.436Z,1003.82
2018-11-27T10:59:33.454Z,1003.8
2018-11-27T11:00:33.474Z,1003.82
2018-11-27T11:01:33.489Z,1003.81
2018-11-27T11:02:33.509Z,1003.79
2018-11-27T11:03:33.527Z,1003.75
2018-11-27T11:04:33.546Z,1003.83
2018-11-27T11:05:33.557Z,1003.8
2018-11-27T11:06:33.576Z,1003.8
2018-11-27T11:07:33.597Z,1003.82
2018-11-27T11:08:33.612Z,1003.83
2018-11-27T11:09:33.643Z,1003.79
2018-11-27T11:10:33.647Z,1003.82
2018-11-27T11:11:33.665Z,1003.8
2018-11-27T11:12:33.680Z,1003.83
2018-11-27T11:13:33.700Z,1003.84
2018-11-27T11:14:33.722Z,1003.87
2018-11-27T11:15:33.736Z,1003.85
2018-11-27T11:16:33.753Z,1003.84
2018-11-27T11:17:33.774Z,1003.86
2018-11-27T11:18:33.790Z,1003.88
2018-11-27T11:19:33.807Z,1003.85
2018-11-27T11:20:33.823Z,1003.84
2018-11-27T11:21:33.847Z,1003.89
2018-11-27T11:22:33.858Z,1003.91
2018-11-27T11:23:33.876Z,1003.89
2018-11-27T11:24:33.898Z,1003.88
2018-11-27T11:25:33.915Z,1003.88
2018-11-27T11:26:33.931Z,1003.89
2018-11-27T11:27:33.948Z,1003.9
2018-11-27T11:28:33.967Z,1003.92
2018-11-27T11:29:33.983Z,1003.89
2018-11-27T11:30:34.001Z,1003.88
2018-11-27T11:31:34.019Z,1003.88
2018-11-27T11:32:34.036Z,1003.87
2018-11-27T11:33:34.054Z,1003.86
2018-11-27T11:34:34.073Z,1003.91
2018-11-27T11:35:34.090Z,1003.86
2018-11-27T11:36:34.107Z,1003.86
2018-11-27T11:37:34.125Z,1003.93
2018-11-27T11:38:34.143Z,1003.9
2018-11-27T11:39:34.164Z,1003.88
2018-11-27T11:40:34.179Z,1003.91
2018-11-27T11:41:34.196Z,1003.89
2018-11-27T11:42:34.214Z,1003.84
2018-11-27T11:43:34.232Z,1003.83
2018-11-27T11:44:34.250Z,1003.83
2018-11-27T11:45:34.266Z,1003.83
2018-11-27T11:46:34.284Z,1003.87
2018-11-27T11:47:34.302Z,1003.93
2018-11-27T11:48:34.323Z,1003.91
2018-11-27T11:49:34.337Z,1003.94
2018-11-27T11:50:34.356Z,1003.93
2018-11-27T11:51:34.376Z,1003.94
2018-11-27T11:52:35.156Z,1003.95
2018-11-27T11:53:34.408Z,1003.92
2018-11-27T11:54:34.426Z,1003.91
2018-11-27T11:55:34.445Z,1003.9
2018-11-27T11:56:34.461Z,1003.9
2018-11-27T11:57:34.480Z,1003.9
2018-11-27T11:58:34.498Z,1003.94
2018-11-27T11:59:34.517Z,1003.97
2018-11-27T12:00:34.536Z,1003.94
2018-11-27T12:01:34.555Z,1003.95
2018-11-27T12:02:34.570Z,1003.95
2018-11-27T12:03:34.589Z,1003.94
2018-11-27T12:04:34.610Z,1003.89
2018-11-27T12:05:34.624Z,1003.95
2018-11-27T12:06:34.643Z,1003.95
2018-11-27T12:07:34.735Z,1003.88
2018-11-27T12:08:34.677Z,1003.89
2018-11-27T12:09:34.695Z,1003.86
2018-11-27T12:10:34.744Z,1003.85